Time;durP1;ratioP1;P1;durP2;ratioP2;P2;SDS_P1;SDS_P2;PMS_P1;PMS_P2;Temp;Humidity;BMP_temperature;BMP_pressure;BME280_temperature;BME280_humidity;BME280_pressure;Samples;Min_cycle;Max_cycle;Signal;HPM_P1;HPM_P2
2022/09/28 00:01:19;;;;;;;7.70;3.67;;;;;;;;;;5046419;28;20029;-66
2022/09/28 00:03:45;;;;;;;11.05;4.00;;;;;;;;;;5048126;28;20021;-66
2022/09/28 00:06:12;;;;;;;11.95;3.78;;;;;;;;;;5046111;28;20029;-66
2022/09/28 00:08:37;;;;;;;6.38;3.35;;;;;;;;;;5047677;28;20481;-66
2022/09/28 00:11:03;;;;;;;10.52;2.30;;;;;;;;;;5040061;28;20082;-66
2022/09/28 00:13:28;;;;;;;5.80;2.53;;;;;;;;;;5046774;28;20017;-66
2022/09/28 00:16:13;;;;;;;3.28;1.88;;;;;;;;;;5046296;28;20651;-66
2022/09/28 00:18:38;;;;;;;6.35;2.15;;;;;;;;;;5047942;28;20040;-66
2022/09/28 00:21:13;;;;;;;7.07;1.73;;;;;;;;;;5046053;28;20021;-66
2022/09/28 00:26:22;;;;;;;3.80;1.38;;;;;;;;;;5045301;28;20052;-66
2022/09/28 00:28:51;;;;;;;5.70;2.00;;;;;;;;;;5048120;28;20033;-66
2022/09/28 00:31:17;;;;;;;5.28;1.58;;;;;;;;;;5047538;28;20029;-66
2022/09/28 00:33:42;;;;;;;6.25;1.52;;;;;;;;;;5046659;28;20100;-66
2022/09/28 00:36:08;;;;;;;6.90;1.83;;;;;;;;;;5046074;28;20041;-66
2022/09/28 00:38:33;;;;;;;4.10;1.67;;;;;;;;;;5046216;28;20021;-66
2022/09/28 00:40:59;;;;;;;3.77;1.30;;;;;;;;;;5046605;28;20037;-66
2022/09/28 00:43:25;;;;;;;2.70;1.70;;;;;;;;;;5046558;28;20370;-66
2022/09/28 00:45:57;;;;;;;5.95;1.92;;;;;;;;;;5047927;28;20029;-66
2022/09/28 00:48:26;;;;;;;16.40;2.40;;;;;;;;;;5047060;28;20029;-66
2022/09/28 00:50:51;;;;;;;5.38;2.28;;;;;;;;;;5048130;28;20048;-66
2022/09/28 00:53:19;;;;;;;6.47;2.35;;;;;;;;;;5044922;28;20063;-66
2022/09/28 00:55:47;;;;;;;3.25;2.08;;;;;;;;;;5045703;28;20027;-66
2022/09/28 00:58:17;;;;;;;14.05;3.65;;;;;;;;;;5045237;28;20024;-66
2022/09/28 01:00:42;;;;;;;7.75;3.30;;;;;;;;;;5048537;28;20025;-66
2022/09/28 01:03:07;;;;;;;9.87;3.33;;;;;;;;;;5050838;28;20044;-66
2022/09/28 01:05:33;;;;;;;10.07;3.83;;;;;;;;;;5050374;28;20683;-66
2022/09/28 01:07:59;;;;;;;10.93;3.85;;;;;;;;;;5047518;28;20055;-66
2022/09/28 01:10:26;;;;;;;8.45;3.97;;;;;;;;;;5050273;28;20033;-66
2022/09/28 01:12:51;;;;;;;15.70;3.90;;;;;;;;;;5049111;28;20024;-65
2022/09/28 01:15:20;;;;;;;20.17;4.40;;;;;;;;;;5049412;28;20074;-65
2022/09/28 01:17:59;;;;;;;9.35;4.15;;;;;;;;;;5048026;28;20313;-67
2022/09/28 01:20:34;;;;;;;10.80;4.75;;;;;;;;;;5044778;28;20071;-66
2022/09/28 01:23:17;;;;;;;7.38;4.38;;;;;;;;;;5048981;28;20492;-66
2022/09/28 01:25:43;;;;;;;13.55;4.72;;;;;;;;;;5049265;28;20295;-67
2022/09/28 01:28:10;;;;;;;11.83;4.43;;;;;;;;;;5051919;28;20021;-66
2022/09/28 01:30:54;;;;;;;12.20;4.75;;;;;;;;;;5051346;28;20402;-66
2022/09/28 01:33:23;;;;;;;12.90;4.72;;;;;;;;;;5048786;28;20021;-67
2022/09/28 01:35:52;;;;;;;11.82;4.95;;;;;;;;;;5048086;28;20083;-67
2022/09/28 01:38:20;;;;;;;9.88;4.68;;;;;;;;;;5050733;28;20023;-66
2022/09/28 01:40:45;;;;;;;10.85;4.20;;;;;;;;;;5046551;28;20020;-66
2022/09/28 01:43:16;;;;;;;18.88;4.47;;;;;;;;;;5051663;28;20060;-67
2022/09/28 01:45:41;;;;;;;9.00;4.22;;;;;;;;;;5049911;28;20031;-66
2022/09/28 01:48:07;;;;;;;8.32;3.85;;;;;;;;;;5024912;28;20017;-66
2022/09/28 01:50:35;;;;;;;13.88;3.97;;;;;;;;;;5050713;28;20295;-67
2022/09/28 01:53:05;;;;;;;14.25;4.22;;;;;;;;;;5050519;28;20025;-67
2022/09/28 01:55:33;;;;;;;9.00;4.82;;;;;;;;;;5048616;28;20024;-67
2022/09/28 01:58:09;;;;;;;10.23;5.22;;;;;;;;;;5048637;28;20025;-66
2022/09/28 02:00:37;;;;;;;10.75;4.97;;;;;;;;;;5050399;28;20025;-67
2022/09/28 02:03:08;;;;;;;13.15;5.45;;;;;;;;;;5049136;28;20040;-67
2022/09/28 02:05:37;;;;;;;12.30;6.28;;;;;;;;;;5049057;28;20146;-66
2022/09/28 02:08:13;;;;;;;12.85;5.63;;;;;;;;;;5047593;28;20029;-66
2022/09/28 02:10:41;;;;;;;20.17;6.30;;;;;;;;;;5044555;28;20116;-64
2022/09/28 02:13:09;;;;;;;20.48;5.75;;;;;;;;;;5049808;28;20044;-66
2022/09/28 02:15:49;;;;;;;15.35;5.95;;;;;;;;;;5049737;28;20017;-67
2022/09/28 02:18:15;;;;;;;16.33;4.85;;;;;;;;;;5050113;28;20032;-66
2022/09/28 02:20:41;;;;;;;14.68;4.97;;;;;;;;;;5046957;28;20377;-66
2022/09/28 02:23:08;;;;;;;7.38;3.58;;;;;;;;;;5050516;28;20159;-66
2022/09/28 02:25:41;;;;;;;10.77;4.20;;;;;;;;;;5045512;28;20466;-66
2022/09/28 02:28:08;;;;;;;10.63;3.72;;;;;;;;;;5047929;28;20037;-66
2022/09/28 02:30:35;;;;;;;8.95;4.28;;;;;;;;;;5047874;28;20021;-65
2022/09/28 02:33:18;;;;;;;8.65;3.88;;;;;;;;;;5047404;28;20484;-66
2022/09/28 02:35:44;;;;;;;11.02;4.15;;;;;;;;;;5045523;28;20025;-66
2022/09/28 02:38:10;;;;;;;10.77;4.28;;;;;;;;;;5049037;28;20389;-66
2022/09/28 02:40:36;;;;;;;10.52;4.18;;;;;;;;;;5049437;28;20029;-66
2022/09/28 02:43:20;;;;;;;13.48;3.55;;;;;;;;;;5049498;28;20046;-66
2022/09/28 02:46:07;;;;;;;11.30;4.28;;;;;;;;;;5046343;28;20028;-65
2022/09/28 02:48:52;;;;;;;9.77;4.20;;;;;;;;;;5047848;28;20021;-66
2022/09/28 02:51:20;;;;;;;11.48;4.85;;;;;;;;;;5048168;28;20057;-66
2022/09/28 02:54:04;;;;;;;13.00;4.95;;;;;;;;;;5047380;28;20389;-65
2022/09/28 02:56:29;;;;;;;10.90;4.32;;;;;;;;;;5022555;28;20021;-67
2022/09/28 02:59:12;;;;;;;19.20;4.63;;;;;;;;;;5048715;28;20021;-66
2022/09/28 03:01:56;;;;;;;12.95;4.93;;;;;;;;;;5049157;28;20017;-65
2022/09/28 03:04:33;;;;;;;10.50;4.80;;;;;;;;;;5042520;28;20017;-67
2022/09/28 03:06:58;;;;;;;9.10;4.47;;;;;;;;;;5046213;28;20029;-66
2022/09/28 03:09:36;;;;;;;9.93;4.70;;;;;;;;;;5048049;28;20017;-66
2022/09/28 03:12:05;;;;;;;13.75;5.57;;;;;;;;;;5045957;28;20393;-66
2022/09/28 03:14:30;;;;;;;15.38;7.13;;;;;;;;;;5049394;28;20017;-64
2022/09/28 03:16:55;;;;;;;16.33;6.07;;;;;;;;;;5047165;28;20021;-66
2022/09/28 03:19:23;;;;;;;11.53;5.07;;;;;;;;;;5050215;28;20013;-66
2022/09/28 03:21:48;;;;;;;14.38;6.75;;;;;;;;;;5044399;28;20263;-65
2022/09/28 03:24:14;;;;;;;19.27;7.00;;;;;;;;;;5045842;28;20067;-66
2022/09/28 03:26:39;;;;;;;16.08;7.40;;;;;;;;;;5045644;28;20275;-66
2022/09/28 03:29:04;;;;;;;15.45;7.28;;;;;;;;;;5048230;28;20029;-66
2022/09/28 03:31:31;;;;;;;17.02;7.40;;;;;;;;;;5045439;28;20477;-65
2022/09/28 03:33:56;;;;;;;20.10;6.88;;;;;;;;;;5047426;28;20021;-69
2022/09/28 03:36:21;;;;;;;16.88;6.65;;;;;;;;;;5047705;28;20429;-66
2022/09/28 03:38:46;;;;;;;19.13;6.70;;;;;;;;;;5046906;28;20440;-66
2022/09/28 03:41:12;;;;;;;14.20;7.25;;;;;;;;;;5049374;28;20021;-66
2022/09/28 03:43:37;;;;;;;18.27;6.95;;;;;;;;;;5046429;28;20147;-65
2022/09/28 03:46:02;;;;;;;16.83;7.18;;;;;;;;;;5049240;28;20589;-66
2022/09/28 03:48:28;;;;;;;19.42;7.22;;;;;;;;;;5047789;28;20051;-65
2022/09/28 03:50:54;;;;;;;24.20;8.75;;;;;;;;;;5046089;28;20094;-66
2022/09/28 03:53:20;;;;;;;17.80;7.63;;;;;;;;;;5049637;28;20025;-66
2022/09/28 03:55:45;;;;;;;17.67;7.93;;;;;;;;;;5047112;28;20059;-66
2022/09/28 03:58:10;;;;;;;22.38;8.80;;;;;;;;;;5047540;28;20079;-66
2022/09/28 04:00:36;;;;;;;19.93;8.43;;;;;;;;;;5045939;28;20100;-66
2022/09/28 04:03:02;;;;;;;21.08;9.43;;;;;;;;;;5029436;28;20295;-65
2022/09/28 04:05:27;;;;;;;21.20;10.48;;;;;;;;;;5044882;28;20060;-66
2022/09/28 04:07:54;;;;;;;23.55;10.00;;;;;;;;;;5046796;28;20116;-66
2022/09/28 04:10:20;;;;;;;22.83;10.15;;;;;;;;;;5045923;28;20021;-66
2022/09/28 04:12:45;;;;;;;23.07;10.13;;;;;;;;;;5050693;28;20086;-65
2022/09/28 04:15:10;;;;;;;20.20;11.13;;;;;;;;;;5043275;28;20286;-66
2022/09/28 04:17:35;;;;;;;19.33;10.02;;;;;;;;;;5046771;28;20025;-64
2022/09/28 04:20:02;;;;;;;28.20;10.87;;;;;;;;;;5045068;28;20037;-66
2022/09/28 04:22:27;;;;;;;22.17;10.90;;;;;;;;;;5042376;28;20259;-65
2022/09/28 04:24:52;;;;;;;24.73;11.43;;;;;;;;;;5043636;28;20082;-66
2022/09/28 04:30:01;;;;;;;23.23;10.88;;;;;;;;;;5046715;28;20381;-66
2022/09/28 04:32:26;;;;;;;22.73;12.27;;;;;;;;;;5046013;28;20025;-67
2022/09/28 04:34:51;;;;;;;28.90;13.52;;;;;;;;;;5047851;28;20377;-66
2022/09/28 04:37:16;;;;;;;20.83;11.60;;;;;;;;;;5046320;28;20466;-66
2022/09/28 04:39:42;;;;;;;23.07;11.07;;;;;;;;;;5051364;28;20306;-66
2022/09/28 04:42:08;;;;;;;22.65;9.85;;;;;;;;;;5052018;28;20291;-65
2022/09/28 04:44:34;;;;;;;21.05;11.05;;;;;;;;;;5051457;28;20017;-66
2022/09/28 04:46:59;;;;;;;19.53;11.10;;;;;;;;;;5051680;28;20025;-66
2022/09/28 04:49:24;;;;;;;23.27;12.27;;;;;;;;;;5048653;28;20272;-66
2022/09/28 04:51:49;;;;;;;26.67;12.38;;;;;;;;;;5049699;28;20272;-66
2022/09/28 04:54:14;;;;;;;28.00;13.32;;;;;;;;;;5052840;28;20043;-66
2022/09/28 04:56:40;;;;;;;27.45;14.50;;;;;;;;;;5048204;28;20103;-66
2022/09/28 04:59:05;;;;;;;31.70;14.95;;;;;;;;;;5052613;28;21228;-66
2022/09/28 05:01:31;;;;;;;25.60;14.40;;;;;;;;;;5030426;28;20029;-66
2022/09/28 05:03:56;;;;;;;28.67;14.02;;;;;;;;;;5052422;28;20048;-66
2022/09/28 05:06:21;;;;;;;29.17;16.50;;;;;;;;;;5047450;28;20021;-66
2022/09/28 05:08:47;;;;;;;31.90;15.15;;;;;;;;;;5051144;28;20016;-66
2022/09/28 05:11:13;;;;;;;32.47;17.60;;;;;;;;;;5051999;28;20028;-66
2022/09/28 05:13:40;;;;;;;32.83;18.58;;;;;;;;;;5049609;28;20019;-66
2022/09/28 05:16:06;;;;;;;29.85;15.32;;;;;;;;;;5047357;28;20473;-67
2022/09/28 05:18:31;;;;;;;35.15;15.68;;;;;;;;;;5049639;28;20021;-66
2022/09/28 05:20:56;;;;;;;29.65;15.45;;;;;;;;;;5050069;28;20032;-67
2022/09/28 05:23:22;;;;;;;27.88;15.25;;;;;;;;;;5045653;28;20032;-65
2022/09/28 05:25:47;;;;;;;26.83;14.50;;;;;;;;;;5046958;28;20025;-66
2022/09/28 05:28:12;;;;;;;33.13;13.85;;;;;;;;;;5043013;28;20037;-65
2022/09/28 05:30:37;;;;;;;27.45;14.27;;;;;;;;;;5046126;28;20025;-65
2022/09/28 05:33:03;;;;;;;27.33;13.30;;;;;;;;;;5045466;28;20060;-66
2022/09/28 05:35:28;;;;;;;24.20;12.35;;;;;;;;;;5042482;28;20021;-66
2022/09/28 05:37:54;;;;;;;26.50;13.02;;;;;;;;;;5044993;28;20036;-65
2022/09/28 05:40:20;;;;;;;24.50;13.45;;;;;;;;;;5046332;28;20107;-67
2022/09/28 05:42:45;;;;;;;23.55;12.60;;;;;;;;;;5047389;28;20069;-66
2022/09/28 05:45:10;;;;;;;19.27;11.38;;;;;;;;;;5044412;28;20026;-66
2022/09/28 05:47:39;;;;;;;23.17;10.93;;;;;;;;;;5046149;28;20052;-67
2022/09/28 05:50:05;;;;;;;24.17;11.00;;;;;;;;;;5048338;28;20082;-66
2022/09/28 05:52:30;;;;;;;26.30;12.63;;;;;;;;;;5045971;28;20025;-67
2022/09/28 05:54:55;;;;;;;22.93;10.13;;;;;;;;;;5047738;28;20507;-67
2022/09/28 05:57:21;;;;;;;17.52;10.13;;;;;;;;;;5048721;28;20267;-67
2022/09/28 05:59:46;;;;;;;19.80;9.80;;;;;;;;;;5043695;28;20029;-69
2022/09/28 06:02:11;;;;;;;26.00;8.97;;;;;;;;;;5049670;28;20021;-65
2022/09/28 06:04:36;;;;;;;19.50;9.50;;;;;;;;;;5051348;28;20267;-65
2022/09/28 06:07:01;;;;;;;18.37;10.13;;;;;;;;;;5049998;28;20283;-65
2022/09/28 06:09:27;;;;;;;22.25;11.30;;;;;;;;;;5051998;28;20259;-65
2022/09/28 06:11:52;;;;;;;21.77;9.95;;;;;;;;;;5049259;28;20428;-66
2022/09/28 06:14:17;;;;;;;23.63;10.97;;;;;;;;;;5046893;28;20036;-67
2022/09/28 06:16:43;;;;;;;24.73;10.68;;;;;;;;;;5046481;28;20837;-67
2022/09/28 06:19:08;;;;;;;18.85;8.98;;;;;;;;;;5049011;28;20160;-66
2022/09/28 06:21:34;;;;;;;13.55;8.18;;;;;;;;;;5048862;28;20146;-66
2022/09/28 06:23:59;;;;;;;18.00;8.30;;;;;;;;;;5048273;28;20597;-66
2022/09/28 06:26:25;;;;;;;21.65;9.95;;;;;;;;;;5047334;28;20112;-69
2022/09/28 06:28:50;;;;;;;17.03;9.00;;;;;;;;;;5046228;28;20059;-66
2022/09/28 06:31:15;;;;;;;17.58;9.52;;;;;;;;;;5049707;28;20291;-67
2022/09/28 06:33:41;;;;;;;16.60;8.70;;;;;;;;;;5045960;28;20017;-66
2022/09/28 06:36:06;;;;;;;18.33;9.23;;;;;;;;;;5051368;28;20029;-68
2022/09/28 06:38:31;;;;;;;18.10;8.68;;;;;;;;;;5046536;28;20256;-66
2022/09/28 06:40:57;;;;;;;15.23;9.30;;;;;;;;;;5045243;28;20126;-65
2022/09/28 06:43:22;;;;;;;27.98;13.45;;;;;;;;;;5043053;28;20282;-65
2022/09/28 06:45:51;;;;;;;25.65;12.70;;;;;;;;;;5044742;28;20021;-66
2022/09/28 06:48:17;;;;;;;29.60;12.85;;;;;;;;;;5051405;28;20017;-68
2022/09/28 06:50:42;;;;;;;29.63;12.25;;;;;;;;;;5048803;28;20039;-69
2022/09/28 06:53:10;;;;;;;27.13;12.23;;;;;;;;;;5049657;28;20097;-68
2022/09/28 06:55:42;;;;;;;22.77;11.18;;;;;;;;;;5045068;28;20029;-65
2022/09/28 06:58:09;;;;;;;23.92;11.02;;;;;;;;;;5045152;28;20013;-66
2022/09/28 07:00:35;;;;;;;22.08;11.07;;;;;;;;;;5047664;28;20104;-66
2022/09/28 07:03:01;;;;;;;19.98;9.68;;;;;;;;;;5047006;28;20167;-68
2022/09/28 07:05:28;;;;;;;17.90;9.52;;;;;;;;;;5051395;28;20016;-65
2022/09/28 07:07:54;;;;;;;16.35;7.63;;;;;;;;;;5046293;28;20434;-67
2022/09/28 07:10:20;;;;;;;15.38;8.02;;;;;;;;;;5043460;28;20128;-67
2022/09/28 07:12:46;;;;;;;12.80;7.13;;;;;;;;;;5043367;28;20021;-67
2022/09/28 07:15:11;;;;;;;13.27;6.90;;;;;;;;;;5042376;28;20377;-68
2022/09/28 07:17:37;;;;;;;18.60;7.10;;;;;;;;;;5043870;28;20067;-67
2022/09/28 07:20:02;;;;;;;17.67;6.50;;;;;;;;;;5048580;28;20046;-68
2022/09/28 07:22:27;;;;;;;16.00;7.00;;;;;;;;;;5048629;28;20048;-68
2022/09/28 07:24:52;;;;;;;21.83;7.57;;;;;;;;;;5048472;28;20151;-66
2022/09/28 07:27:18;;;;;;;11.23;6.30;;;;;;;;;;5047260;28;20025;-67
2022/09/28 07:29:44;;;;;;;19.63;6.60;;;;;;;;;;5047023;28;20287;-67
2022/09/28 07:32:09;;;;;;;12.32;5.28;;;;;;;;;;5047959;28;20094;-67
2022/09/28 07:34:43;;;;;;;13.93;6.30;;;;;;;;;;5049818;28;20028;-68
2022/09/28 07:37:10;;;;;;;14.05;5.55;;;;;;;;;;5046901;28;20355;-67
2022/09/28 07:41:10;;;;;;;13.23;5.72;;;;;;;;;;5050587;28;20351;-66
2022/09/28 07:42:21;;;;;;;12.15;5.80;;;;;;;;;;5043955;28;20068;-67
2022/09/28 07:44:46;;;;;;;13.23;6.40;;;;;;;;;;5049447;28;20016;-68
2022/09/28 07:47:11;;;;;;;8.13;4.50;;;;;;;;;;5044949;28;20033;-68
2022/09/28 07:49:36;;;;;;;10.27;4.40;;;;;;;;;;5049038;28;20247;-67
2022/09/28 07:52:01;;;;;;;10.83;5.50;;;;;;;;;;5045378;28;20477;-68
2022/09/28 07:54:27;;;;;;;15.68;5.60;;;;;;;;;;5052029;28;20273;-67
2022/09/28 07:56:52;;;;;;;13.43;7.18;;;;;;;;;;5047002;28;20402;-67
2022/09/28 07:59:17;;;;;;;13.13;5.90;;;;;;;;;;5048309;28;20029;-67
2022/09/28 08:01:42;;;;;;;9.90;4.47;;;;;;;;;;5045771;28;20267;-68
2022/09/28 08:04:08;;;;;;;10.23;4.07;;;;;;;;;;5046992;28;20032;-67
2022/09/28 08:06:33;;;;;;;10.10;3.83;;;;;;;;;;5044362;28;20628;-67
2022/09/28 08:09:00;;;;;;;10.63;5.35;;;;;;;;;;5048184;28;20278;-67
2022/09/28 08:11:25;;;;;;;10.50;3.25;;;;;;;;;;5042664;28;20247;-68
2022/09/28 08:13:54;;;;;;;6.25;3.42;;;;;;;;;;5045774;28;20017;-66
2022/09/28 08:16:19;;;;;;;8.35;3.33;;;;;;;;;;5046419;28;20462;-67
2022/09/28 08:18:47;;;;;;;10.48;3.35;;;;;;;;;;5045894;28;20182;-66
2022/09/28 08:23:56;;;;;;;11.10;3.28;;;;;;;;;;5045665;28;20047;-67
2022/09/28 08:26:21;;;;;;;13.30;4.20;;;;;;;;;;5045115;28;20033;-67
2022/09/28 08:28:46;;;;;;;7.07;3.47;;;;;;;;;;5028350;28;20068;-66
2022/09/28 08:31:12;;;;;;;7.50;3.60;;;;;;;;;;5045999;28;20283;-66
2022/09/28 08:33:37;;;;;;;8.68;3.13;;;;;;;;;;5047572;28;20104;-68
2022/09/28 08:36:03;;;;;;;8.30;3.42;;;;;;;;;;5046852;28;20112;-67
2022/09/28 08:38:29;;;;;;;11.10;3.97;;;;;;;;;;5048990;28;20372;-67
2022/09/28 08:41:03;;;;;;;11.75;3.17;;;;;;;;;;5046623;28;20094;-67
2022/09/28 08:43:28;;;;;;;7.60;4.38;;;;;;;;;;5045202;28;20032;-66
2022/09/28 08:45:56;;;;;;;8.35;3.58;;;;;;;;;;5044180;28;20021;-67
2022/09/28 08:48:47;;;;;;;13.43;5.22;;;;;;;;;;5049180;28;20041;-67
2022/09/28 08:51:34;;;;;;;12.70;4.20;;;;;;;;;;5046755;28;20108;-67
2022/09/28 08:54:04;;;;;;;10.65;4.47;;;;;;;;;;5047714;28;20029;-68
2022/09/28 08:56:46;;;;;;;10.70;3.72;;;;;;;;;;5042868;28;20044;-67
2022/09/28 08:59:13;;;;;;;9.65;4.85;;;;;;;;;;5045931;28;20033;-67
2022/09/28 09:01:49;;;;;;;12.07;4.50;;;;;;;;;;5027157;28;20358;-66
2022/09/28 09:04:14;;;;;;;14.57;4.40;;;;;;;;;;5048195;28;20473;-67
2022/09/28 09:06:45;;;;;;;7.57;3.35;;;;;;;;;;5047092;28;20031;-67
2022/09/28 09:09:23;;;;;;;9.45;4.18;;;;;;;;;;5030525;28;20013;-66
2022/09/28 09:12:07;;;;;;;14.65;4.57;;;;;;;;;;5043591;28;20025;-67
2022/09/28 09:14:35;;;;;;;7.80;3.50;;;;;;;;;;5049409;28;20021;-67
2022/09/28 09:17:12;;;;;;;6.90;3.10;;;;;;;;;;5046947;28;20021;-66
2022/09/28 09:19:37;;;;;;;7.18;3.45;;;;;;;;;;5044969;28;20017;-67
2022/09/28 09:22:14;;;;;;;9.90;2.47;;;;;;;;;;5045585;28;20048;-67
2022/09/28 09:24:50;;;;;;;6.22;3.20;;;;;;;;;;5050890;28;20274;-67
2022/09/28 09:27:41;;;;;;;7.15;2.80;;;;;;;;;;5049312;28;20033;-65
2022/09/28 09:30:11;;;;;;;7.53;3.17;;;;;;;;;;5051557;28;20397;-68
2022/09/28 09:32:45;;;;;;;8.05;3.20;;;;;;;;;;5048623;28;20474;-67
2022/09/28 09:35:19;;;;;;;8.10;2.95;;;;;;;;;;5049103;28;20090;-67
2022/09/28 09:37:55;;;;;;;9.50;3.13;;;;;;;;;;5051372;28;20024;-66
2022/09/28 09:40:25;;;;;;;6.40;3.08;;;;;;;;;;5047387;28;20020;-66
2022/09/28 09:42:59;;;;;;;9.65;3.35;;;;;;;;;;5049856;28;20905;-67
2022/09/28 09:45:47;;;;;;;7.38;2.80;;;;;;;;;;5051050;28;20481;-67
2022/09/28 09:48:17;;;;;;;8.80;2.60;;;;;;;;;;5044070;28;20039;-67
2022/09/28 09:50:52;;;;;;;9.40;3.58;;;;;;;;;;5051388;28;20090;-67
2022/09/28 09:53:17;;;;;;;5.63;2.88;;;;;;;;;;5049436;28;20155;-67
2022/09/28 09:55:44;;;;;;;10.10;4.68;;;;;;;;;;5050346;28;20529;-67
2022/09/28 09:58:12;;;;;;;8.05;3.20;;;;;;;;;;5050937;28;20042;-67
2022/09/28 10:00:39;;;;;;;17.73;5.55;;;;;;;;;;5048984;28;21880;-67
2022/09/28 10:03:05;;;;;;;11.30;2.75;;;;;;;;;;5050027;28;20040;-67
2022/09/28 10:05:31;;;;;;;5.78;2.58;;;;;;;;;;5046557;28;20053;-66
2022/09/28 10:08:01;;;;;;;11.43;2.90;;;;;;;;;;5050373;28;20477;-66
2022/09/28 10:10:32;;;;;;;3.80;1.80;;;;;;;;;;5044608;28;20481;-66
2022/09/28 10:12:57;;;;;;;6.22;1.92;;;;;;;;;;5050714;28;20492;-67
2022/09/28 10:15:24;;;;;;;7.03;1.93;;;;;;;;;;5047639;28;20029;-65
2022/09/28 10:17:50;;;;;;;7.32;2.10;;;;;;;;;;5048778;28;20752;-67
2022/09/28 10:20:15;;;;;;;11.15;1.80;;;;;;;;;;5047515;28;20153;-66
2022/09/28 10:22:41;;;;;;;7.60;1.70;;;;;;;;;;5047101;28;20056;-67
2022/09/28 10:25:08;;;;;;;4.82;1.55;;;;;;;;;;5050149;28;20477;-68
2022/09/28 10:27:34;;;;;;;11.32;2.38;;;;;;;;;;5048172;28;20025;-67
2022/09/28 10:30:01;;;;;;;2.42;1.23;;;;;;;;;;5051372;28;20073;-65
2022/09/28 10:32:35;;;;;;;5.65;1.50;;;;;;;;;;5312378;22;20064;-64
2022/09/28 10:35:15;;;;;;;3.88;1.20;;;;;;;;;;5049189;28;20024;-64
2022/09/28 10:37:49;;;;;;;6.90;1.40;;;;;;;;;;5030897;28;20032;-64
2022/09/28 10:40:23;;;;;;;4.60;1.20;;;;;;;;;;5046987;28;20029;-64
2022/09/28 10:42:48;;;;;;;5.03;1.10;;;;;;;;;;5031257;28;20671;-62
2022/09/28 10:45:21;;;;;;;3.87;1.30;;;;;;;;;;5047023;28;20107;-62
2022/09/28 10:47:47;;;;;;;5.07;1.38;;;;;;;;;;5043574;28;20307;-64
2022/09/28 10:50:25;;;;;;;5.75;1.63;;;;;;;;;;5050739;28;20067;-64
2022/09/28 10:52:51;;;;;;;5.53;1.50;;;;;;;;;;5048297;28;20107;-62
2022/09/28 10:55:31;;;;;;;5.30;1.75;;;;;;;;;;5049160;28;20124;-62
2022/09/28 10:57:56;;;;;;;8.93;1.70;;;;;;;;;;5044522;28;20481;-62
2022/09/28 11:00:30;;;;;;;2.72;1.20;;;;;;;;;;5047579;28;20032;-62
2022/09/28 11:02:55;;;;;;;4.28;1.20;;;;;;;;;;5047178;28;20024;-62
2022/09/28 11:05:22;;;;;;;5.28;1.33;;;;;;;;;;5049549;28;20025;-62
2022/09/28 11:07:48;;;;;;;4.75;1.33;;;;;;;;;;5049809;28;20534;-63
2022/09/28 11:10:21;;;;;;;4.60;1.60;;;;;;;;;;5043481;28;20029;-62
2022/09/28 11:12:46;;;;;;;4.15;1.20;;;;;;;;;;5048332;28;20023;-63
2022/09/28 11:15:24;;;;;;;6.78;0.90;;;;;;;;;;5047539;28;20013;-62
2022/09/28 11:17:49;;;;;;;3.17;1.02;;;;;;;;;;5046459;28;20031;-64
2022/09/28 11:20:20;;;;;;;2.40;1.13;;;;;;;;;;5048722;28;20037;-62
2022/09/28 11:22:47;;;;;;;1.58;0.90;;;;;;;;;;5049182;28;20294;-62
2022/09/28 11:25:12;;;;;;;4.47;0.77;;;;;;;;;;5047502;28;20100;-62
2022/09/28 11:27:37;;;;;;;1.83;1.03;;;;;;;;;;5050569;28;20120;-62
2022/09/28 11:30:03;;;;;;;8.77;1.20;;;;;;;;;;5046208;28;20348;-62
2022/09/28 11:32:31;;;;;;;7.28;1.20;;;;;;;;;;5049362;28;20366;-62
2022/09/28 11:34:58;;;;;;;9.00;2.15;;;;;;;;;;5047835;28;20465;-62
2022/09/28 11:37:34;;;;;;;5.35;1.38;;;;;;;;;;5047715;28;20021;-62
2022/09/28 11:40:23;;;;;;;4.47;1.13;;;;;;;;;;5045226;28;20035;-61
2022/09/28 11:42:58;;;;;;;5.80;1.05;;;;;;;;;;5045077;28;20017;-62
2022/09/28 11:45:26;;;;;;;3.85;1.20;;;;;;;;;;5049074;28;20044;-62
2022/09/28 11:47:54;;;;;;;9.10;1.15;;;;;;;;;;5052688;28;20474;-62
2022/09/28 11:50:28;;;;;;;5.22;1.23;;;;;;;;;;5053641;28;20047;-62
2022/09/28 11:53:02;;;;;;;3.95;1.02;;;;;;;;;;5044152;28;20023;-62
2022/09/28 11:55:46;;;;;;;3.47;1.30;;;;;;;;;;5048724;28;20481;-62
2022/09/28 11:58:14;;;;;;;4.82;1.48;;;;;;;;;;5048125;28;20026;-62
2022/09/28 12:00:43;;;;;;;12.38;2.65;;;;;;;;;;5054944;28;20538;-62
2022/09/28 12:03:15;;;;;;;6.13;2.30;;;;;;;;;;5054871;28;20029;-62
2022/09/28 12:05:49;;;;;;;6.05;2.15;;;;;;;;;;5047118;28;20028;-62
2022/09/28 12:08:26;;;;;;;2.67;1.70;;;;;;;;;;5047486;28;20473;-62
2022/09/28 12:11:09;;;;;;;3.47;1.15;;;;;;;;;;5047266;28;20100;-62
2022/09/28 12:13:40;;;;;;;9.77;1.38;;;;;;;;;;5053780;28;20040;-61
2022/09/28 12:16:06;;;;;;;4.63;1.50;;;;;;;;;;5047777;28;20485;-63
2022/09/28 12:18:36;;;;;;;7.75;1.25;;;;;;;;;;5046834;28;20021;-61
2022/09/28 12:21:07;;;;;;;5.43;1.00;;;;;;;;;;5047783;28;20021;-62
2022/09/28 12:23:34;;;;;;;4.00;1.55;;;;;;;;;;5047341;28;20382;-62
2022/09/28 12:26:01;;;;;;;8.60;1.55;;;;;;;;;;5047839;28;20029;-62
2022/09/28 12:28:29;;;;;;;2.33;1.10;;;;;;;;;;5048683;28;20146;-64
2022/09/28 12:30:57;;;;;;;3.33;1.40;;;;;;;;;;5050862;28;20025;-62
2022/09/28 12:33:22;;;;;;;4.03;1.63;;;;;;;;;;5040235;28;20524;-62
2022/09/28 12:35:56;;;;;;;4.35;1.75;;;;;;;;;;5047565;28;20033;-62
2022/09/28 12:38:22;;;;;;;8.77;2.42;;;;;;;;;;5045287;28;20028;-62
2022/09/28 12:40:55;;;;;;;11.38;2.70;;;;;;;;;;5045041;28;20028;-62
2022/09/28 12:43:27;;;;;;;4.95;1.65;;;;;;;;;;5045246;28;20036;-62
2022/09/28 12:45:58;;;;;;;2.45;1.60;;;;;;;;;;5048333;28;20024;-62
2022/09/28 12:48:42;;;;;;;5.45;1.33;;;;;;;;;;5046884;28;20028;-62
2022/09/28 12:51:08;;;;;;;4.75;1.75;;;;;;;;;;5047309;28;20497;-62
2022/09/28 12:53:33;;;;;;;3.22;1.17;;;;;;;;;;5044038;28;20051;-61
2022/09/28 12:56:08;;;;;;;5.05;1.13;;;;;;;;;;5048647;28;20017;-63
2022/09/28 12:58:42;;;;;;;3.88;1.30;;;;;;;;;;5051238;28;20103;-62
2022/09/28 13:01:17;;;;;;;5.93;1.00;;;;;;;;;;5049965;28;20031;-62
2022/09/28 13:04:11;;;;;;;4.57;1.17;;;;;;;;;;5050382;28;20085;-64
2022/09/28 13:06:43;;;;;;;4.93;1.40;;;;;;;;;;5049460;28;20024;-62
2022/09/28 13:09:21;;;;;;;4.50;1.17;;;;;;;;;;5050116;28;20021;-62
2022/09/28 13:11:53;;;;;;;4.75;1.00;;;;;;;;;;5048977;28;20025;-62
2022/09/28 13:14:28;;;;;;;3.42;1.30;;;;;;;;;;5049510;28;20496;-62
2022/09/28 13:17:03;;;;;;;5.28;1.10;;;;;;;;;;5047327;28;20021;-62
2022/09/28 13:19:28;;;;;;;4.38;1.00;;;;;;;;;;5048737;28;20013;-62
2022/09/28 13:22:01;;;;;;;6.68;1.42;;;;;;;;;;5058766;28;20489;-62
2022/09/28 13:24:29;;;;;;;4.05;1.10;;;;;;;;;;5048636;28;20446;-62
2022/09/28 13:26:57;;;;;;;3.00;1.10;;;;;;;;;;5049875;28;20017;-62
2022/09/28 13:29:23;;;;;;;7.38;1.45;;;;;;;;;;5052671;28;20059;-62
2022/09/28 13:31:56;;;;;;;7.55;2.30;;;;;;;;;;5048926;28;20060;-61
2022/09/28 13:34:23;;;;;;;4.30;0.98;;;;;;;;;;5044736;28;20067;-62
2022/09/28 13:37:07;;;;;;;2.08;1.05;;;;;;;;;;5049410;28;20021;-62
2022/09/28 13:39:55;;;;;;;9.05;1.42;;;;;;;;;;5049199;28;20361;-64
2022/09/28 13:42:35;;;;;;;2.95;1.15;;;;;;;;;;5049804;28;20132;-62
2022/09/28 13:45:08;;;;;;;4.70;1.17;;;;;;;;;;5050335;28;20097;-61
2022/09/28 13:47:52;;;;;;;5.47;1.10;;;;;;;;;;5046112;28;20110;-62
2022/09/28 13:50:27;;;;;;;4.18;1.27;;;;;;;;;;5049822;28;20031;-62
2022/09/28 13:53:15;;;;;;;8.65;1.00;;;;;;;;;;5048352;28;20013;-62
2022/09/28 13:55:50;;;;;;;2.50;1.30;;;;;;;;;;5042240;28;20025;-64
2022/09/28 13:58:21;;;;;;;3.15;1.40;;;;;;;;;;5055386;28;20032;-62
2022/09/28 14:00:50;;;;;;;4.80;1.38;;;;;;;;;;5058394;28;20096;-64
2022/09/28 14:03:18;;;;;;;3.88;1.30;;;;;;;;;;5038081;28;20053;-64
2022/09/28 14:05:46;;;;;;;9.35;1.25;;;;;;;;;;5048178;28;20025;-64
2022/09/28 14:08:22;;;;;;;4.50;0.47;;;;;;;;;;5046935;28;20017;-62
2022/09/28 14:10:50;;;;;;;3.00;0.80;;;;;;;;;;5049043;28;20033;-62
2022/09/28 14:13:34;;;;;;;5.85;2.10;;;;;;;;;;5049164;28;20025;-62
2022/09/28 14:16:17;;;;;;;2.80;0.70;;;;;;;;;;5046482;28;20051;-63
2022/09/28 14:19:03;;;;;;;3.22;0.82;;;;;;;;;;5047765;28;20017;-62
2022/09/28 14:21:28;;;;;;;6.53;1.27;;;;;;;;;;5038380;28;20678;-62
2022/09/28 14:24:02;;;;;;;6.63;0.90;;;;;;;;;;5048249;28;20036;-62
2022/09/28 14:26:40;;;;;;;4.28;1.17;;;;;;;;;;5042986;28;20025;-62
2022/09/28 14:29:16;;;;;;;6.15;1.00;;;;;;;;;;5050643;28;20017;-62
2022/09/28 14:31:44;;;;;;;1.50;0.77;;;;;;;;;;5047173;28;20470;-62
2022/09/28 14:34:32;;;;;;;3.65;1.10;;;;;;;;;;5049022;28;20041;-62
2022/09/28 14:42:27;;;;;;;5.78;1.30;;;;;;;;;;5050393;28;20036;-62
2022/09/28 14:45:02;;;;;;;3.80;1.35;;;;;;;;;;5049371;28;20017;-62
2022/09/28 14:47:34;;;;;;;3.45;0.90;;;;;;;;;;5045840;28;20020;-62
2022/09/28 14:50:00;;;;;;;3.63;0.98;;;;;;;;;;5046529;28;20028;-62
2022/09/28 14:52:45;;;;;;;1.95;0.70;;;;;;;;;;5044144;28;20026;-62
2022/09/28 14:55:12;;;;;;;2.90;0.60;;;;;;;;;;5048418;28;20033;-62
2022/09/28 14:57:39;;;;;;;3.70;1.10;;;;;;;;;;5044308;28;20029;-62
2022/09/28 15:00:17;;;;;;;10.45;1.08;;;;;;;;;;5048717;28;20024;-62